createdAt,value
2023-05-08T00:01:22.603Z,3.22
2023-05-08T00:05:25.671Z,5.55
2023-05-08T00:09:27.614Z,4.03
2023-05-08T00:13:29.580Z,3.70
2023-05-08T00:17:32.133Z,4.15
2023-05-08T00:21:33.992Z,5.30
2023-05-08T00:25:36.026Z,8.07
2023-05-08T00:29:40.329Z,11.68
2023-05-08T00:33:42.457Z,7.22
2023-05-08T00:37:44.562Z,6.88
2023-05-08T00:41:46.626Z,7.07
2023-05-08T00:45:48.828Z,9.68
2023-05-08T00:49:51.089Z,6.85
2023-05-08T00:53:53.403Z,6.20
2023-05-08T00:57:55.375Z,7.82
2023-05-08T01:01:57.323Z,7.97
2023-05-08T01:05:59.862Z,6.70
2023-05-08T01:10:02.003Z,6.63
2023-05-08T01:14:19.268Z,7.68
2023-05-08T01:18:37.065Z,5.50
2023-05-08T01:22:45.039Z,7.15
2023-05-08T01:27:15.010Z,7.72
2023-05-08T01:32:04.600Z,6.32
2023-05-08T01:36:27.135Z,9.52
2023-05-08T01:40:45.411Z,6.85
2023-05-08T01:45:25.689Z,5.95
2023-05-08T01:49:33.821Z,5.43
2023-05-08T01:53:41.211Z,5.82
2023-05-08T01:57:48.112Z,7.72
2023-05-08T02:01:54.253Z,8.52
2023-05-08T02:05:57.758Z,5.38
2023-05-08T02:10:00.614Z,6.05
2023-05-08T02:14:04.003Z,5.25
2023-05-08T02:18:08.491Z,8.48
2023-05-08T02:22:11.845Z,7.25
2023-05-08T02:26:16.007Z,6.22
2023-05-08T02:30:21.779Z,8.73
2023-05-08T02:34:24.648Z,6.22
2023-05-08T02:38:27.139Z,5.88
2023-05-08T02:42:29.088Z,6.13
2023-05-08T02:46:37.246Z,5.95
2023-05-08T02:51:02.607Z,5.82
2023-05-08T02:55:14.961Z,6.68
2023-05-08T02:59:29.224Z,7.15
2023-05-08T03:03:40.919Z,6.40
2023-05-08T03:07:45.347Z,6.65
2023-05-08T03:11:52.086Z,7.50
2023-05-08T03:16:06.676Z,8.27
2023-05-08T03:20:14.815Z,6.13
2023-05-08T03:24:19.821Z,10.75
2023-05-08T03:28:24.107Z,7.13
2023-05-08T03:32:30.098Z,6.88
2023-05-08T03:36:32.818Z,8.18
2023-05-08T03:40:38.507Z,9.82
2023-05-08T03:44:40.626Z,10.05
2023-05-08T03:48:43.857Z,13.02
2023-05-08T03:52:47.168Z,13.20
2023-05-08T03:56:49.367Z,13.70
2023-05-08T04:01:09.389Z,15.05
2023-05-08T04:05:20.971Z,14.75
2023-05-08T04:09:38.853Z,18.45
2023-05-08T04:13:48.967Z,17.17
2023-05-08T04:18:06.369Z,15.43
2023-05-08T04:22:11.865Z,17.52
2023-05-08T04:26:16.624Z,15.68
2023-05-08T04:30:20.333Z,18.95
2023-05-08T04:34:23.126Z,19.65
2023-05-08T04:38:25.400Z,18.40
2023-05-08T04:42:28.023Z,17.13
2023-05-08T04:46:33.584Z,17.38
2023-05-08T04:50:35.805Z,17.95
2023-05-08T04:54:38.078Z,15.48
2023-05-08T04:58:40.306Z,17.10
2023-05-08T05:02:42.478Z,15.93
2023-05-08T05:06:44.651Z,17.38
2023-05-08T05:10:47.434Z,16.35
2023-05-08T05:14:49.568Z,16.00
2023-05-08T05:18:51.872Z,15.52
2023-05-08T05:22:54.423Z,16.30
2023-05-08T05:26:56.406Z,17.58
2023-05-08T05:30:58.682Z,17.33
2023-05-08T05:35:00.826Z,14.23
2023-05-08T05:39:03.701Z,16.25
2023-05-08T05:43:06.188Z,13.30
2023-05-08T05:47:10.709Z,13.85
2023-05-08T05:51:14.515Z,14.15
2023-05-08T05:55:17.157Z,14.75
2023-05-08T05:59:21.305Z,13.57
2023-05-08T06:03:23.408Z,18.10
2023-05-08T06:07:25.471Z,13.10
2023-05-08T06:11:27.400Z,19.13
2023-05-08T06:15:29.552Z,15.05
2023-05-08T06:19:31.688Z,14.85
2023-05-08T06:23:33.796Z,15.63
2023-05-08T06:27:36.028Z,15.68
2023-05-08T06:31:38.154Z,13.98
2023-05-08T06:35:40.110Z,13.65
2023-05-08T06:39:42.300Z,14.38
2023-05-08T06:43:44.310Z,18.52
2023-05-08T06:47:46.361Z,14.02
2023-05-08T06:51:48.470Z,13.77
2023-05-08T06:55:51.453Z,13.80
2023-05-08T06:59:54.206Z,15.38
2023-05-08T07:03:56.069Z,13.30
2023-05-08T07:07:57.812Z,13.93
2023-05-08T07:11:59.712Z,14.07
2023-05-08T07:16:02.239Z,14.38
2023-05-08T07:20:05.366Z,14.88
2023-05-08T07:24:07.965Z,14.88
2023-05-08T07:28:10.298Z,16.02
2023-05-08T07:32:12.400Z,20.35
2023-05-08T07:36:14.640Z,18.05
2023-05-08T07:40:16.620Z,16.55
2023-05-08T07:44:18.750Z,17.27
2023-05-08T07:48:21.223Z,15.95
2023-05-08T07:52:23.508Z,16.85
2023-05-08T07:56:25.318Z,49.95
2023-05-08T08:00:27.777Z,30.20
2023-05-08T08:04:29.798Z,20.67
2023-05-08T08:08:32.014Z,19.85
2023-05-08T08:12:34.399Z,15.35
2023-05-08T08:16:36.635Z,16.98
2023-05-08T08:20:38.837Z,22.92
2023-05-08T08:24:40.781Z,24.80
2023-05-08T08:28:42.938Z,21.05
2023-05-08T08:32:45.996Z,24.00
2023-05-08T08:36:48.063Z,21.90
2023-05-08T08:40:50.386Z,21.90
2023-05-08T08:44:52.517Z,22.73
2023-05-08T08:48:56.511Z,18.15
2023-05-08T08:53:29.470Z,20.77
2023-05-08T08:57:36.770Z,20.13
2023-05-08T09:01:41.026Z,17.98
2023-05-08T09:05:45.406Z,25.98
2023-05-08T09:09:48.275Z,19.77
2023-05-08T09:13:50.990Z,19.13
2023-05-08T09:17:53.156Z,19.88
2023-05-08T09:21:55.548Z,18.17
2023-05-08T09:25:57.517Z,19.48
2023-05-08T09:30:08.031Z,18.33
2023-05-08T09:34:27.334Z,19.35
2023-05-08T09:38:39.294Z,19.13
2023-05-08T09:42:41.823Z,23.20
2023-05-08T09:46:43.711Z,22.30
2023-05-08T09:50:45.793Z,20.38
2023-05-08T09:55:21.028Z,18.38
2023-05-08T09:59:28.189Z,20.08
2023-05-08T10:03:49.371Z,18.42
2023-05-08T10:07:51.886Z,19.10
2023-05-08T10:11:55.509Z,19.50
2023-05-08T10:15:58.162Z,18.38
2023-05-08T10:20:03.170Z,20.85
2023-05-08T10:24:27.407Z,18.67
2023-05-08T10:28:37.086Z,21.40
2023-05-08T10:32:43.941Z,20.60
2023-05-08T10:36:48.279Z,21.05
2023-05-08T10:40:53.238Z,21.67
2023-05-08T10:44:55.628Z,19.75
2023-05-08T10:49:09.324Z,23.42
2023-05-08T10:53:20.657Z,20.60
2023-05-08T10:57:22.404Z,24.35
2023-05-08T11:01:28.180Z,19.42
2023-05-08T11:05:30.260Z,22.20
2023-05-08T11:09:41.181Z,22.38
2023-05-08T11:14:16.310Z,20.52
2023-05-08T11:18:18.300Z,19.05
2023-05-08T11:22:29.178Z,20.35
2023-05-08T11:26:40.633Z,20.48
2023-05-08T11:30:44.630Z,21.90
2023-05-08T11:34:48.663Z,19.55
2023-05-08T11:39:12.765Z,20.08
2023-05-08T11:43:32.942Z,22.05
2023-05-08T11:47:39.244Z,19.52
2023-05-08T11:51:45.040Z,24.10
2023-05-08T11:55:52.682Z,20.92
2023-05-08T11:59:54.506Z,21.13
2023-05-08T12:04:03.347Z,19.38
2023-05-08T12:08:12.696Z,20.80
2023-05-08T12:12:14.743Z,17.73
2023-05-08T12:16:17.153Z,19.40
2023-05-08T12:20:19.682Z,20.27
2023-05-08T12:24:23.646Z,22.25
2023-05-08T12:28:26.146Z,18.52
2023-05-08T12:32:29.206Z,19.27
2023-05-08T12:36:35.808Z,17.45
2023-05-08T12:40:52.880Z,19.05
2023-05-08T12:44:55.064Z,17.98
2023-05-08T12:49:07.158Z,19.13
2023-05-08T12:53:11.230Z,18.63
2023-05-08T12:57:15.234Z,17.73
2023-05-08T13:01:17.209Z,17.88
2023-05-08T13:05:21.104Z,18.10
2023-05-08T13:09:23.523Z,17.55
2023-05-08T13:13:27.580Z,15.45
2023-05-08T13:17:29.730Z,15.15
2023-05-08T13:21:31.832Z,18.00
2023-05-08T13:25:34.265Z,16.73
2023-05-08T13:29:36.536Z,16.98
2023-05-08T13:33:38.506Z,20.17
2023-05-08T13:37:40.643Z,17.08
2023-05-08T13:41:42.606Z,18.00
2023-05-08T13:45:44.870Z,14.98
2023-05-08T13:49:47.472Z,15.98
2023-05-08T13:53:49.607Z,21.88
2023-05-08T13:57:51.905Z,17.50
2023-05-08T14:01:54.201Z,16.90
2023-05-08T14:05:56.337Z,15.75
2023-05-08T14:09:58.672Z,15.43
2023-05-08T14:14:00.616Z,15.23
2023-05-08T14:18:02.569Z,17.30
2023-05-08T14:22:04.888Z,17.75
2023-05-08T14:26:06.866Z,16.17
2023-05-08T14:30:09.591Z,17.15
2023-05-08T14:34:11.552Z,16.45
2023-05-08T14:38:13.575Z,16.73
2023-05-08T14:42:22.876Z,17.98
2023-05-08T14:46:25.808Z,17.90
2023-05-08T14:50:27.883Z,19.95
2023-05-08T14:54:29.987Z,20.92
2023-05-08T14:58:32.371Z,20.85
2023-05-08T15:02:34.614Z,18.45
2023-05-08T15:06:37.137Z,19.45
2023-05-08T15:10:39.253Z,20.05
2023-05-08T15:14:41.305Z,19.65
2023-05-08T15:18:43.295Z,18.63
2023-05-08T15:22:45.372Z,17.33
2023-05-08T15:26:47.328Z,19.40
2023-05-08T15:30:49.410Z,18.38
2023-05-08T15:34:51.521Z,18.23
2023-05-08T15:38:54.019Z,20.42
2023-05-08T15:42:56.439Z,18.25
2023-05-08T15:46:58.750Z,17.73
2023-05-08T15:51:00.944Z,18.65
2023-05-08T15:55:03.025Z,17.15
2023-05-08T15:59:06.588Z,18.10
2023-05-08T16:03:08.887Z,17.58
2023-05-08T16:07:11.076Z,17.27
2023-05-08T16:11:13.191Z,19.27
2023-05-08T16:15:15.200Z,16.73
2023-05-08T16:19:17.378Z,18.25
2023-05-08T16:23:19.139Z,17.83
2023-05-08T16:27:21.290Z,18.85
2023-05-08T16:31:23.322Z,17.48
2023-05-08T16:35:25.755Z,17.85
2023-05-08T16:39:27.885Z,18.30
2023-05-08T16:43:29.909Z,18.05
2023-05-08T16:47:32.238Z,17.42
2023-05-08T16:51:34.544Z,17.48
2023-05-08T16:55:36.374Z,18.23
2023-05-08T16:59:38.422Z,21.33
2023-05-08T17:03:40.665Z,20.90
2023-05-08T17:07:42.787Z,19.45
2023-05-08T17:11:44.619Z,23.67
2023-05-08T17:15:46.790Z,22.67
2023-05-08T17:19:48.918Z,22.25
2023-05-08T17:23:51.090Z,21.42
2023-05-08T17:27:53.259Z,22.83
2023-05-08T17:31:55.735Z,19.88
2023-05-08T17:35:57.942Z,23.63
2023-05-08T17:40:00.046Z,19.90
2023-05-08T17:44:01.982Z,21.95
2023-05-08T17:48:05.382Z,24.30
2023-05-08T17:52:07.657Z,21.80
2023-05-08T17:56:10.062Z,23.75
2023-05-08T18:00:12.935Z,24.90
2023-05-08T18:04:15.327Z,20.30
2023-05-08T18:08:17.288Z,20.60
2023-05-08T18:12:19.139Z,30.98
2023-05-08T18:16:22.489Z,26.05
2023-05-08T18:20:24.640Z,23.50
2023-05-08T18:24:26.594Z,18.83
2023-05-08T18:28:28.775Z,24.85
2023-05-08T18:32:31.029Z,19.48
2023-05-08T18:36:33.014Z,22.33
2023-05-08T18:40:35.277Z,21.27
2023-05-08T18:44:37.374Z,20.08
2023-05-08T18:48:42.551Z,24.27
2023-05-08T18:52:44.651Z,21.92
2023-05-08T18:56:46.655Z,17.30
2023-05-08T19:00:48.835Z,21.52
2023-05-08T19:04:51.596Z,16.98
2023-05-08T19:08:53.662Z,21.77
2023-05-08T19:12:55.927Z,23.30
2023-05-08T19:16:58.631Z,19.95
2023-05-08T19:21:01.662Z,23.02
2023-05-08T19:25:04.181Z,19.08
2023-05-08T19:29:06.345Z,17.95
2023-05-08T19:33:08.522Z,19.60
2023-05-08T19:37:10.632Z,21.00
2023-05-08T19:41:12.687Z,19.08
2023-05-08T19:45:16.201Z,18.80
2023-05-08T19:49:18.296Z,20.55
2023-05-08T19:53:20.427Z,22.75
2023-05-08T19:57:22.541Z,28.10
2023-05-08T20:01:24.600Z,26.02
2023-05-08T20:05:26.753Z,27.38
2023-05-08T20:09:28.775Z,23.17
2023-05-08T20:13:30.796Z,40.75
2023-05-08T20:17:32.905Z,28.63
2023-05-08T20:21:35.690Z,21.55
2023-05-08T20:25:37.656Z,20.05
2023-05-08T20:29:39.831Z,18.00
2023-05-08T20:33:42.880Z,19.80
2023-05-08T20:37:46.167Z,21.10
2023-05-08T20:41:48.089Z,18.42
2023-05-08T20:45:50.262Z,20.48
2023-05-08T20:49:52.223Z,19.70
2023-05-08T20:53:54.174Z,21.92
2023-05-08T20:57:56.171Z,27.23
2023-05-08T21:01:58.119Z,21.40
2023-05-08T21:06:00.159Z,22.67
2023-05-08T21:10:02.288Z,24.20
2023-05-08T21:14:04.211Z,20.95
2023-05-08T21:18:07.009Z,19.55
2023-05-08T21:22:09.397Z,18.85
2023-05-08T21:26:12.240Z,19.38
2023-05-08T21:30:16.370Z,17.70
2023-05-08T21:34:21.298Z,21.73
2023-05-08T21:38:23.277Z,19.92
2023-05-08T21:42:25.317Z,18.83
2023-05-08T21:46:27.454Z,20.08
2023-05-08T21:50:29.653Z,21.08
2023-05-08T21:54:31.554Z,18.67
2023-05-08T21:58:33.697Z,21.13
2023-05-08T22:02:36.380Z,24.02
2023-05-08T22:06:38.448Z,24.17
2023-05-08T22:10:40.522Z,23.35
2023-05-08T22:14:42.400Z,19.30
2023-05-08T22:18:44.521Z,24.85
2023-05-08T22:22:47.395Z,22.15
2023-05-08T22:26:49.571Z,20.55
2023-05-08T22:30:51.522Z,20.52
2023-05-08T22:34:53.574Z,18.83
2023-05-08T22:38:56.037Z,20.88
2023-05-08T22:42:59.108Z,21.08
2023-05-08T22:47:01.605Z,19.92
2023-05-08T22:51:04.351Z,18.08
2023-05-08T22:55:07.071Z,21.95
2023-05-08T22:59:09.082Z,19.70
2023-05-08T23:03:10.889Z,19.13
2023-05-08T23:07:12.723Z,16.17
2023-05-08T23:11:14.887Z,17.13
2023-05-08T23:15:16.954Z,18.85
2023-05-08T23:19:19.260Z,18.95
2023-05-08T23:23:21.124Z,21.20
2023-05-08T23:27:23.208Z,17.75
2023-05-08T23:31:25.378Z,19.27
2023-05-08T23:35:28.330Z,19.45
2023-05-08T23:39:32.099Z,22.70
2023-05-08T23:43:34.140Z,17.58
2023-05-08T23:47:36.233Z,19.42
2023-05-08T23:51:38.294Z,18.30
2023-05-08T23:55:40.638Z,19.13
2023-05-08T23:59:42.743Z,22.50
